sensor_id;sensor_type;location;lat;lon;timestamp;P1;durP1;ratioP1;P2;durP2;ratioP2
72891;SDS011;61032;50.782;6.818;2023-04-03T00:00:05;2.95;;;1.85;;
72891;SDS011;61032;50.782;6.818;2023-04-03T00:01:07;2.50;;;1.52;;
72891;SDS011;61032;50.782;6.818;2023-04-03T00:02:07;3.20;;;1.52;;
72891;SDS011;61032;50.782;6.818;2023-04-03T00:03:07;2.13;;;1.33;;
72891;SDS011;61032;50.782;6.818;2023-04-03T00:04:08;2.17;;;1.00;;
72891;SDS011;61032;50.782;6.818;2023-04-03T00:05:08;3.53;;;0.93;;
72891;SDS011;61032;50.782;6.818;2023-04-03T00:06:09;2.65;;;1.35;;
72891;SDS011;61032;50.782;6.818;2023-04-03T00:08:12;2.28;;;1.02;;
72891;SDS011;61032;50.782;6.818;2023-04-03T00:09:12;1.42;;;1.13;;
72891;SDS011;61032;50.782;6.818;2023-04-03T00:10:13;2.13;;;1.38;;
72891;SDS011;61032;50.782;6.818;2023-04-03T00:11:14;1.13;;;0.73;;
72891;SDS011;61032;50.782;6.818;2023-04-03T00:12:16;1.52;;;1.08;;
72891;SDS011;61032;50.782;6.818;2023-04-03T00:13:16;1.20;;;0.82;;
72891;SDS011;61032;50.782;6.818;2023-04-03T00:14:16;3.28;;;1.48;;
72891;SDS011;61032;50.782;6.818;2023-04-03T00:15:17;3.00;;;1.42;;
72891;SDS011;61032;50.782;6.818;2023-04-03T00:16:17;1.73;;;1.17;;
72891;SDS011;61032;50.782;6.818;2023-04-03T00:17:18;1.45;;;1.00;;
72891;SDS011;61032;50.782;6.818;2023-04-03T00:18:18;1.90;;;1.15;;
72891;SDS011;61032;50.782;6.818;2023-04-03T00:19:19;2.85;;;1.38;;
72891;SDS011;61032;50.782;6.818;2023-04-03T00:20:19;2.42;;;1.10;;
72891;SDS011;61032;50.782;6.818;2023-04-03T00:21:20;1.60;;;1.15;;
72891;SDS011;61032;50.782;6.818;2023-04-03T00:22:20;1.98;;;1.45;;
72891;SDS011;61032;50.782;6.818;2023-04-03T00:23:20;3.03;;;1.38;;
72891;SDS011;61032;50.782;6.818;2023-04-03T00:24:21;1.50;;;0.98;;
72891;SDS011;61032;50.782;6.818;2023-04-03T00:25:21;2.63;;;1.40;;
72891;SDS011;61032;50.782;6.818;2023-04-03T00:26:22;1.63;;;1.35;;
72891;SDS011;61032;50.782;6.818;2023-04-03T00:27:22;2.08;;;1.70;;
72891;SDS011;61032;50.782;6.818;2023-04-03T00:28:22;1.65;;;1.23;;
72891;SDS011;61032;50.782;6.818;2023-04-03T00:29:23;2.03;;;1.45;;
72891;SDS011;61032;50.782;6.818;2023-04-03T00:30:23;3.15;;;1.65;;
72891;SDS011;61032;50.782;6.818;2023-04-03T00:31:24;1.75;;;1.27;;
72891;SDS011;61032;50.782;6.818;2023-04-03T00:32:25;3.22;;;1.75;;
72891;SDS011;61032;50.782;6.818;2023-04-03T00:33:25;2.67;;;1.40;;
72891;SDS011;61032;50.782;6.818;2023-04-03T00:34:25;2.03;;;1.83;;
72891;SDS011;61032;50.782;6.818;2023-04-03T00:35:26;3.05;;;1.45;;
72891;SDS011;61032;50.782;6.818;2023-04-03T00:36:26;2.20;;;1.35;;
72891;SDS011;61032;50.782;6.818;2023-04-03T00:37:27;3.58;;;1.52;;
72891;SDS011;61032;50.782;6.818;2023-04-03T00:38:27;8.85;;;7.13;;
72891;SDS011;61032;50.782;6.818;2023-04-03T00:39:27;11.63;;;8.88;;
72891;SDS011;61032;50.782;6.818;2023-04-03T00:40:28;4.93;;;3.70;;
72891;SDS011;61032;50.782;6.818;2023-04-03T00:41:34;2.72;;;2.40;;
72891;SDS011;61032;50.782;6.818;2023-04-03T00:42:37;2.88;;;1.92;;
72891;SDS011;61032;50.782;6.818;2023-04-03T00:43:40;3.50;;;1.75;;
72891;SDS011;61032;50.782;6.818;2023-04-03T00:45:44;2.53;;;1.63;;
72891;SDS011;61032;50.782;6.818;2023-04-03T00:46:50;2.67;;;1.85;;
72891;SDS011;61032;50.782;6.818;2023-04-03T00:47:50;4.70;;;1.95;;
72891;SDS011;61032;50.782;6.818;2023-04-03T00:48:51;2.80;;;2.05;;
72891;SDS011;61032;50.782;6.818;2023-04-03T00:49:51;3.45;;;2.30;;
72891;SDS011;61032;50.782;6.818;2023-04-03T00:50:53;3.65;;;1.65;;
72891;SDS011;61032;50.782;6.818;2023-04-03T00:51:54;2.50;;;1.70;;
72891;SDS011;61032;50.782;6.818;2023-04-03T00:52:57;2.80;;;1.70;;
72891;SDS011;61032;50.782;6.818;2023-04-03T00:53:58;3.45;;;1.83;;
72891;SDS011;61032;50.782;6.818;2023-04-03T00:55:06;2.72;;;1.50;;
72891;SDS011;61032;50.782;6.818;2023-04-03T00:56:09;4.18;;;1.92;;
72891;SDS011;61032;50.782;6.818;2023-04-03T00:57:12;5.82;;;2.25;;
72891;SDS011;61032;50.782;6.818;2023-04-03T00:58:13;2.33;;;1.70;;
72891;SDS011;61032;50.782;6.818;2023-04-03T00:59:19;4.13;;;1.85;;
72891;SDS011;61032;50.782;6.818;2023-04-03T01:00:41;5.50;;;2.97;;
72891;SDS011;61032;50.782;6.818;2023-04-03T01:01:46;3.47;;;1.80;;
72891;SDS011;61032;50.782;6.818;2023-04-03T01:02:47;4.03;;;1.95;;
72891;SDS011;61032;50.782;6.818;2023-04-03T01:03:48;6.88;;;3.25;;
72891;SDS011;61032;50.782;6.818;2023-04-03T01:04:49;7.05;;;6.35;;
72891;SDS011;61032;50.782;6.818;2023-04-03T01:05:49;4.30;;;3.47;;
72891;SDS011;61032;50.782;6.818;2023-04-03T01:06:50;7.90;;;2.92;;
72891;SDS011;61032;50.782;6.818;2023-04-03T01:07:51;3.08;;;2.55;;
72891;SDS011;61032;50.782;6.818;2023-04-03T01:08:53;3.15;;;2.40;;
72891;SDS011;61032;50.782;6.818;2023-04-03T01:11:00;2.92;;;2.20;;
72891;SDS011;61032;50.782;6.818;2023-04-03T01:12:17;2.30;;;2.00;;
72891;SDS011;61032;50.782;6.818;2023-04-03T01:13:22;2.65;;;2.13;;
72891;SDS011;61032;50.782;6.818;2023-04-03T01:14:33;3.05;;;1.77;;
72891;SDS011;61032;50.782;6.818;2023-04-03T01:15:33;3.08;;;1.95;;
72891;SDS011;61032;50.782;6.818;2023-04-03T01:16:34;3.20;;;1.83;;
72891;SDS011;61032;50.782;6.818;2023-04-03T01:18:38;4.88;;;2.17;;
72891;SDS011;61032;50.782;6.818;2023-04-03T01:19:40;2.63;;;1.80;;
72891;SDS011;61032;50.782;6.818;2023-04-03T01:22:19;3.28;;;2.15;;
72891;SDS011;61032;50.782;6.818;2023-04-03T01:25:01;3.60;;;2.22;;
72891;SDS011;61032;50.782;6.818;2023-04-03T01:26:02;3.08;;;1.83;;
72891;SDS011;61032;50.782;6.818;2023-04-03T01:27:03;2.25;;;1.73;;
72891;SDS011;61032;50.782;6.818;2023-04-03T01:28:06;3.28;;;1.98;;
72891;SDS011;61032;50.782;6.818;2023-04-03T01:29:09;2.78;;;1.75;;
72891;SDS011;61032;50.782;6.818;2023-04-03T01:30:09;2.35;;;1.67;;
72891;SDS011;61032;50.782;6.818;2023-04-03T01:32:46;2.28;;;1.67;;
72891;SDS011;61032;50.782;6.818;2023-04-03T01:33:46;3.42;;;2.03;;
72891;SDS011;61032;50.782;6.818;2023-04-03T01:34:47;2.17;;;1.48;;
72891;SDS011;61032;50.782;6.818;2023-04-03T01:35:47;3.33;;;1.65;;
72891;SDS011;61032;50.782;6.818;2023-04-03T01:36:47;5.57;;;1.67;;
72891;SDS011;61032;50.782;6.818;2023-04-03T01:37:48;4.05;;;1.90;;
72891;SDS011;61032;50.782;6.818;2023-04-03T01:38:48;2.42;;;1.95;;
72891;SDS011;61032;50.782;6.818;2023-04-03T01:39:49;3.65;;;1.65;;
72891;SDS011;61032;50.782;6.818;2023-04-03T01:40:49;3.75;;;1.67;;
72891;SDS011;61032;50.782;6.818;2023-04-03T01:41:49;3.67;;;2.00;;
72891;SDS011;61032;50.782;6.818;2023-04-03T01:42:50;2.38;;;2.00;;
72891;SDS011;61032;50.782;6.818;2023-04-03T01:43:50;3.53;;;2.05;;
72891;SDS011;61032;50.782;6.818;2023-04-03T01:44:51;4.00;;;2.00;;
72891;SDS011;61032;50.782;6.818;2023-04-03T01:45:51;5.85;;;2.13;;
72891;SDS011;61032;50.782;6.818;2023-04-03T01:46:54;2.83;;;1.70;;
72891;SDS011;61032;50.782;6.818;2023-04-03T01:47:54;3.13;;;1.85;;
72891;SDS011;61032;50.782;6.818;2023-04-03T01:48:55;3.72;;;1.70;;
72891;SDS011;61032;50.782;6.818;2023-04-03T01:49:55;2.00;;;1.63;;
72891;SDS011;61032;50.782;6.818;2023-04-03T01:50:55;2.75;;;1.83;;
72891;SDS011;61032;50.782;6.818;2023-04-03T01:51:56;2.80;;;1.60;;
72891;SDS011;61032;50.782;6.818;2023-04-03T01:52:56;2.90;;;1.73;;
72891;SDS011;61032;50.782;6.818;2023-04-03T01:53:56;2.45;;;1.65;;
72891;SDS011;61032;50.782;6.818;2023-04-03T01:54:56;2.65;;;1.67;;
72891;SDS011;61032;50.782;6.818;2023-04-03T01:55:57;4.00;;;1.88;;
72891;SDS011;61032;50.782;6.818;2023-04-03T01:56:57;2.88;;;1.88;;
72891;SDS011;61032;50.782;6.818;2023-04-03T01:57:57;2.97;;;1.63;;
72891;SDS011;61032;50.782;6.818;2023-04-03T01:58:58;2.63;;;1.98;;
72891;SDS011;61032;50.782;6.818;2023-04-03T01:59:58;3.33;;;1.52;;
72891;SDS011;61032;50.782;6.818;2023-04-03T02:00:58;3.00;;;1.88;;
72891;SDS011;61032;50.782;6.818;2023-04-03T02:01:59;4.13;;;1.88;;
72891;SDS011;61032;50.782;6.818;2023-04-03T02:02:59;4.32;;;2.13;;
72891;SDS011;61032;50.782;6.818;2023-04-03T02:04:00;3.92;;;2.00;;
72891;SDS011;61032;50.782;6.818;2023-04-03T02:05:00;2.25;;;1.73;;
72891;SDS011;61032;50.782;6.818;2023-04-03T02:06:01;4.15;;;1.98;;
72891;SDS011;61032;50.782;6.818;2023-04-03T02:07:01;4.10;;;2.92;;
72891;SDS011;61032;50.782;6.818;2023-04-03T02:08:01;4.57;;;2.42;;
72891;SDS011;61032;50.782;6.818;2023-04-03T02:09:02;3.95;;;2.08;;
72891;SDS011;61032;50.782;6.818;2023-04-03T02:10:03;1.92;;;1.60;;
72891;SDS011;61032;50.782;6.818;2023-04-03T02:11:03;3.80;;;2.30;;
72891;SDS011;61032;50.782;6.818;2023-04-03T02:12:04;4.18;;;2.00;;
72891;SDS011;61032;50.782;6.818;2023-04-03T02:13:04;2.53;;;1.60;;
72891;SDS011;61032;50.782;6.818;2023-04-03T02:14:04;3.30;;;1.52;;
72891;SDS011;61032;50.782;6.818;2023-04-03T02:15:05;3.15;;;1.48;;
72891;SDS011;61032;50.782;6.818;2023-04-03T02:16:06;2.80;;;1.83;;
72891;SDS011;61032;50.782;6.818;2023-04-03T02:17:11;2.75;;;1.65;;
72891;SDS011;61032;50.782;6.818;2023-04-03T02:18:11;2.42;;;1.42;;
72891;SDS011;61032;50.782;6.818;2023-04-03T02:19:12;3.45;;;1.42;;
72891;SDS011;61032;50.782;6.818;2023-04-03T02:20:12;2.50;;;1.60;;
72891;SDS011;61032;50.782;6.818;2023-04-03T02:21:12;2.80;;;1.50;;
72891;SDS011;61032;50.782;6.818;2023-04-03T02:22:13;1.75;;;1.25;;
72891;SDS011;61032;50.782;6.818;2023-04-03T02:23:13;2.35;;;1.75;;
72891;SDS011;61032;50.782;6.818;2023-04-03T02:24:14;2.38;;;1.23;;
72891;SDS011;61032;50.782;6.818;2023-04-03T02:25:14;2.30;;;1.52;;
72891;SDS011;61032;50.782;6.818;2023-04-03T02:26:15;3.40;;;1.85;;
72891;SDS011;61032;50.782;6.818;2023-04-03T02:27:16;2.75;;;1.90;;
72891;SDS011;61032;50.782;6.818;2023-04-03T02:28:16;2.58;;;1.95;;
72891;SDS011;61032;50.782;6.818;2023-04-03T02:29:16;2.58;;;1.70;;
72891;SDS011;61032;50.782;6.818;2023-04-03T02:30:17;4.82;;;1.80;;
72891;SDS011;61032;50.782;6.818;2023-04-03T02:31:17;3.65;;;1.40;;
72891;SDS011;61032;50.782;6.818;2023-04-03T02:32:18;3.50;;;1.95;;
72891;SDS011;61032;50.782;6.818;2023-04-03T02:33:18;3.28;;;2.13;;
72891;SDS011;61032;50.782;6.818;2023-04-03T02:34:18;2.30;;;1.70;;
72891;SDS011;61032;50.782;6.818;2023-04-03T02:35:19;3.78;;;1.92;;
72891;SDS011;61032;50.782;6.818;2023-04-03T02:36:20;2.38;;;1.73;;
72891;SDS011;61032;50.782;6.818;2023-04-03T02:37:20;2.78;;;1.83;;
72891;SDS011;61032;50.782;6.818;2023-04-03T02:38:21;2.80;;;1.52;;
72891;SDS011;61032;50.782;6.818;2023-04-03T02:39:22;1.73;;;1.63;;
72891;SDS011;61032;50.782;6.818;2023-04-03T02:40:23;2.72;;;1.52;;
72891;SDS011;61032;50.782;6.818;2023-04-03T02:41:23;2.42;;;1.73;;
72891;SDS011;61032;50.782;6.818;2023-04-03T02:42:25;2.78;;;1.50;;
72891;SDS011;61032;50.782;6.818;2023-04-03T02:43:26;4.68;;;1.63;;
72891;SDS011;61032;50.782;6.818;2023-04-03T02:44:26;3.53;;;1.38;;
72891;SDS011;61032;50.782;6.818;2023-04-03T02:45:26;3.08;;;1.70;;
72891;SDS011;61032;50.782;6.818;2023-04-03T02:46:27;4.30;;;2.30;;
72891;SDS011;61032;50.782;6.818;2023-04-03T02:47:27;1.63;;;1.38;;
72891;SDS011;61032;50.782;6.818;2023-04-03T02:48:27;2.00;;;1.42;;
72891;SDS011;61032;50.782;6.818;2023-04-03T02:49:28;3.03;;;1.73;;
72891;SDS011;61032;50.782;6.818;2023-04-03T02:50:28;2.53;;;1.70;;
72891;SDS011;61032;50.782;6.818;2023-04-03T02:51:28;2.92;;;1.63;;
72891;SDS011;61032;50.782;6.818;2023-04-03T02:52:29;2.17;;;1.63;;
72891;SDS011;61032;50.782;6.818;2023-04-03T02:53:29;2.05;;;1.33;;
72891;SDS011;61032;50.782;6.818;2023-04-03T02:54:29;5.88;;;1.35;;
72891;SDS011;61032;50.782;6.818;2023-04-03T02:55:30;2.85;;;1.60;;
72891;SDS011;61032;50.782;6.818;2023-04-03T02:56:30;2.15;;;1.70;;
72891;SDS011;61032;50.782;6.818;2023-04-03T02:57:31;1.85;;;1.65;;
72891;SDS011;61032;50.782;6.818;2023-04-03T02:58:31;1.45;;;1.17;;
72891;SDS011;61032;50.782;6.818;2023-04-03T02:59:31;1.60;;;1.15;;
72891;SDS011;61032;50.782;6.818;2023-04-03T03:00:32;4.05;;;1.73;;
72891;SDS011;61032;50.782;6.818;2023-04-03T03:01:33;2.17;;;1.60;;
72891;SDS011;61032;50.782;6.818;2023-04-03T03:02:33;4.43;;;1.63;;
72891;SDS011;61032;50.782;6.818;2023-04-03T03:03:33;4.72;;;1.65;;
72891;SDS011;61032;50.782;6.818;2023-04-03T03:04:34;5.18;;;1.55;;
72891;SDS011;61032;50.782;6.818;2023-04-03T03:05:35;2.80;;;1.55;;
72891;SDS011;61032;50.782;6.818;2023-04-03T03:06:35;2.33;;;1.42;;
72891;SDS011;61032;50.782;6.818;2023-04-03T03:07:36;3.33;;;1.75;;
72891;SDS011;61032;50.782;6.818;2023-04-03T03:08:37;2.30;;;1.67;;
72891;SDS011;61032;50.782;6.818;2023-04-03T03:09:37;2.80;;;1.63;;
72891;SDS011;61032;50.782;6.818;2023-04-03T03:10:37;2.80;;;1.58;;
72891;SDS011;61032;50.782;6.818;2023-04-03T03:11:38;2.53;;;1.90;;
72891;SDS011;61032;50.782;6.818;2023-04-03T03:12:38;2.60;;;1.80;;
72891;SDS011;61032;50.782;6.818;2023-04-03T03:13:38;2.63;;;1.40;;
72891;SDS011;61032;50.782;6.818;2023-04-03T03:14:39;2.53;;;1.33;;
72891;SDS011;61032;50.782;6.818;2023-04-03T03:15:40;4.10;;;2.17;;
72891;SDS011;61032;50.782;6.818;2023-04-03T03:16:40;3.03;;;1.55;;
72891;SDS011;61032;50.782;6.818;2023-04-03T03:17:41;2.45;;;1.60;;
72891;SDS011;61032;50.782;6.818;2023-04-03T03:18:41;2.28;;;1.58;;
72891;SDS011;61032;50.782;6.818;2023-04-03T03:19:41;5.75;;;1.83;;
72891;SDS011;61032;50.782;6.818;2023-04-03T03:20:42;3.20;;;2.15;;
72891;SDS011;61032;50.782;6.818;2023-04-03T03:21:42;3.15;;;2.08;;
72891;SDS011;61032;50.782;6.818;2023-04-03T03:22:43;5.80;;;2.28;;
72891;SDS011;61032;50.782;6.818;2023-04-03T03:23:43;2.30;;;1.70;;
72891;SDS011;61032;50.782;6.818;2023-04-03T03:24:43;4.15;;;2.03;;
72891;SDS011;61032;50.782;6.818;2023-04-03T03:25:43;2.80;;;1.80;;
72891;SDS011;61032;50.782;6.818;2023-04-03T03:26:44;3.72;;;2.33;;
72891;SDS011;61032;50.782;6.818;2023-04-03T03:27:44;3.40;;;2.22;;
72891;SDS011;61032;50.782;6.818;2023-04-03T03:28:45;3.20;;;2.13;;
72891;SDS011;61032;50.782;6.818;2023-04-03T03:29:46;4.63;;;2.65;;
72891;SDS011;61032;50.782;6.818;2023-04-03T03:30:47;3.40;;;2.38;;
72891;SDS011;61032;50.782;6.818;2023-04-03T03:31:47;4.28;;;2.28;;
72891;SDS011;61032;50.782;6.818;2023-04-03T03:32:47;3.78;;;2.33;;
72891;SDS011;61032;50.782;6.818;2023-04-03T03:33:48;4.72;;;2.85;;
72891;SDS011;61032;50.782;6.818;2023-04-03T03:34:48;4.00;;;2.70;;
72891;SDS011;61032;50.782;6.818;2023-04-03T03:35:48;4.88;;;2.38;;
72891;SDS011;61032;50.782;6.818;2023-04-03T03:36:49;3.00;;;2.30;;
72891;SDS011;61032;50.782;6.818;2023-04-03T03:37:49;3.70;;;2.55;;
72891;SDS011;61032;50.782;6.818;2023-04-03T03:38:49;4.63;;;2.45;;
72891;SDS011;61032;50.782;6.818;2023-04-03T03:39:50;5.68;;;2.53;;
72891;SDS011;61032;50.782;6.818;2023-04-03T03:40:50;3.33;;;2.38;;
72891;SDS011;61032;50.782;6.818;2023-04-03T03:41:51;3.40;;;2.65;;
72891;SDS011;61032;50.782;6.818;2023-04-03T03:42:53;3.00;;;2.55;;
72891;SDS011;61032;50.782;6.818;2023-04-03T03:43:53;4.78;;;2.33;;
72891;SDS011;61032;50.782;6.818;2023-04-03T03:44:53;3.60;;;2.20;;
72891;SDS011;61032;50.782;6.818;2023-04-03T03:45:54;3.88;;;2.40;;
72891;SDS011;61032;50.782;6.818;2023-04-03T03:46:55;5.18;;;2.45;;
72891;SDS011;61032;50.782;6.818;2023-04-03T03:47:56;2.75;;;2.53;;
72891;SDS011;61032;50.782;6.818;2023-04-03T03:48:56;2.90;;;2.15;;
72891;SDS011;61032;50.782;6.818;2023-04-03T03:49:56;7.07;;;2.90;;
72891;SDS011;61032;50.782;6.818;2023-04-03T03:50:57;2.80;;;2.17;;
72891;SDS011;61032;50.782;6.818;2023-04-03T03:51:57;4.15;;;2.20;;
72891;SDS011;61032;50.782;6.818;2023-04-03T03:52:57;2.97;;;1.67;;
72891;SDS011;61032;50.782;6.818;2023-04-03T03:53:58;3.25;;;2.47;;
72891;SDS011;61032;50.782;6.818;2023-04-03T03:54:58;3.80;;;2.03;;
72891;SDS011;61032;50.782;6.818;2023-04-03T03:55:58;2.60;;;1.88;;
72891;SDS011;61032;50.782;6.818;2023-04-03T03:56:59;2.30;;;2.10;;
72891;SDS011;61032;50.782;6.818;2023-04-03T03:57:59;3.38;;;1.88;;
72891;SDS011;61032;50.782;6.818;2023-04-03T03:59:01;3.63;;;2.10;;
72891;SDS011;61032;50.782;6.818;2023-04-03T04:00:01;3.42;;;1.83;;
72891;SDS011;61032;50.782;6.818;2023-04-03T04:01:03;2.15;;;1.92;;
72891;SDS011;61032;50.782;6.818;2023-04-03T04:02:05;4.18;;;1.75;;
72891;SDS011;61032;50.782;6.818;2023-04-03T04:03:05;3.78;;;2.17;;
72891;SDS011;61032;50.782;6.818;2023-04-03T04:04:06;2.60;;;1.92;;
72891;SDS011;61032;50.782;6.818;2023-04-03T04:05:06;4.07;;;1.83;;
72891;SDS011;61032;50.782;6.818;2023-04-03T04:06:06;3.40;;;2.22;;
72891;SDS011;61032;50.782;6.818;2023-04-03T04:07:07;2.90;;;2.13;;
72891;SDS011;61032;50.782;6.818;2023-04-03T04:08:07;2.78;;;1.85;;
72891;SDS011;61032;50.782;6.818;2023-04-03T04:09:08;2.00;;;1.83;;
72891;SDS011;61032;50.782;6.818;2023-04-03T04:10:09;2.60;;;2.15;;
72891;SDS011;61032;50.782;6.818;2023-04-03T04:11:10;3.45;;;2.15;;
72891;SDS011;61032;50.782;6.818;2023-04-03T04:12:10;2.60;;;2.40;;
72891;SDS011;61032;50.782;6.818;2023-04-03T04:13:10;5.07;;;2.03;;
72891;SDS011;61032;50.782;6.818;2023-04-03T04:14:11;3.03;;;2.10;;
72891;SDS011;61032;50.782;6.818;2023-04-03T04:16:13;2.95;;;1.92;;
72891;SDS011;61032;50.782;6.818;2023-04-03T04:17:13;3.65;;;2.22;;
72891;SDS011;61032;50.782;6.818;2023-04-03T04:18:14;2.78;;;2.47;;
72891;SDS011;61032;50.782;6.818;2023-04-03T04:19:14;4.32;;;2.35;;
72891;SDS011;61032;50.782;6.818;2023-04-03T04:20:15;2.00;;;1.73;;
72891;SDS011;61032;50.782;6.818;2023-04-03T04:21:15;3.03;;;1.90;;
72891;SDS011;61032;50.782;6.818;2023-04-03T04:22:15;3.83;;;2.22;;
72891;SDS011;61032;50.782;6.818;2023-04-03T04:23:16;3.20;;;2.40;;
72891;SDS011;61032;50.782;6.818;2023-04-03T04:24:17;3.50;;;2.28;;
72891;SDS011;61032;50.782;6.818;2023-04-03T04:25:18;2.47;;;2.22;;
72891;SDS011;61032;50.782;6.818;2023-04-03T04:26:18;2.65;;;1.92;;
72891;SDS011;61032;50.782;6.818;2023-04-03T04:27:18;2.97;;;1.88;;
72891;SDS011;61032;50.782;6.818;2023-04-03T04:28:19;2.72;;;2.10;;
72891;SDS011;61032;50.782;6.818;2023-04-03T04:29:19;3.33;;;2.63;;
72891;SDS011;61032;50.782;6.818;2023-04-03T04:30:20;3.75;;;2.55;;
72891;SDS011;61032;50.782;6.818;2023-04-03T04:31:20;2.70;;;2.50;;
72891;SDS011;61032;50.782;6.818;2023-04-03T04:32:20;3.88;;;2.75;;
72891;SDS011;61032;50.782;6.818;2023-04-03T04:33:21;4.00;;;3.10;;
72891;SDS011;61032;50.782;6.818;2023-04-03T04:34:21;2.35;;;2.25;;
72891;SDS011;61032;50.782;6.818;2023-04-03T04:35:21;3.88;;;2.33;;
72891;SDS011;61032;50.782;6.818;2023-04-03T04:36:21;4.05;;;2.45;;
72891;SDS011;61032;50.782;6.818;2023-04-03T04:37:22;3.55;;;2.95;;
72891;SDS011;61032;50.782;6.818;2023-04-03T04:38:22;3.40;;;2.45;;
72891;SDS011;61032;50.782;6.818;2023-04-03T04:39:22;4.97;;;2.00;;
72891;SDS011;61032;50.782;6.818;2023-04-03T04:40:23;3.60;;;2.53;;
72891;SDS011;61032;50.782;6.818;2023-04-03T04:41:23;3.92;;;2.35;;
72891;SDS011;61032;50.782;6.818;2023-04-03T04:42:24;3.38;;;2.33;;
72891;SDS011;61032;50.782;6.818;2023-04-03T04:43:25;3.80;;;2.53;;
72891;SDS011;61032;50.782;6.818;2023-04-03T04:44:25;2.95;;;2.35;;
72891;SDS011;61032;50.782;6.818;2023-04-03T04:45:25;3.30;;;2.03;;
72891;SDS011;61032;50.782;6.818;2023-04-03T04:46:26;2.92;;;1.85;;
72891;SDS011;61032;50.782;6.818;2023-04-03T04:47:28;2.15;;;1.95;;
72891;SDS011;61032;50.782;6.818;2023-04-03T04:48:29;2.78;;;2.42;;
72891;SDS011;61032;50.782;6.818;2023-04-03T04:49:30;3.85;;;2.78;;
72891;SDS011;61032;50.782;6.818;2023-04-03T04:50:30;3.55;;;2.53;;
72891;SDS011;61032;50.782;6.818;2023-04-03T04:51:30;3.97;;;2.17;;
72891;SDS011;61032;50.782;6.818;2023-04-03T04:52:31;2.90;;;2.13;;
72891;SDS011;61032;50.782;6.818;2023-04-03T04:53:31;3.95;;;2.40;;
72891;SDS011;61032;50.782;6.818;2023-04-03T04:54:32;2.20;;;1.98;;
72891;SDS011;61032;50.782;6.818;2023-04-03T04:55:33;3.70;;;1.90;;
72891;SDS011;61032;50.782;6.818;2023-04-03T04:56:33;4.35;;;2.25;;
72891;SDS011;61032;50.782;6.818;2023-04-03T04:57:33;3.00;;;2.13;;
72891;SDS011;61032;50.782;6.818;2023-04-03T04:58:35;3.13;;;1.60;;
72891;SDS011;61032;50.782;6.818;2023-04-03T04:59:35;3.05;;;1.92;;
72891;SDS011;61032;50.782;6.818;2023-04-03T05:00:35;4.68;;;1.83;;
72891;SDS011;61032;50.782;6.818;2023-04-03T05:01:36;4.78;;;2.08;;
72891;SDS011;61032;50.782;6.818;2023-04-03T05:02:36;3.35;;;2.08;;
72891;SDS011;61032;50.782;6.818;2023-04-03T05:03:36;1.92;;;1.83;;
72891;SDS011;61032;50.782;6.818;2023-04-03T05:04:37;3.38;;;1.70;;
72891;SDS011;61032;50.782;6.818;2023-04-03T05:05:37;5.05;;;2.10;;
72891;SDS011;61032;50.782;6.818;2023-04-03T05:06:38;3.22;;;1.77;;
72891;SDS011;61032;50.782;6.818;2023-04-03T05:07:38;4.20;;;2.70;;
72891;SDS011;61032;50.782;6.818;2023-04-03T05:08:38;4.15;;;2.08;;
72891;SDS011;61032;50.782;6.818;2023-04-03T05:09:39;2.45;;;2.15;;
72891;SDS011;61032;50.782;6.818;2023-04-03T05:10:42;2.83;;;2.30;;
72891;SDS011;61032;50.782;6.818;2023-04-03T05:11:42;3.05;;;2.05;;
72891;SDS011;61032;50.782;6.818;2023-04-03T05:12:43;2.88;;;2.28;;
72891;SDS011;61032;50.782;6.818;2023-04-03T05:13:43;2.63;;;1.90;;
72891;SDS011;61032;50.782;6.818;2023-04-03T05:14:43;1.77;;;1.67;;
72891;SDS011;61032;50.782;6.818;2023-04-03T05:15:43;2.13;;;1.63;;
72891;SDS011;61032;50.782;6.818;2023-04-03T05:16:44;2.38;;;2.13;;
72891;SDS011;61032;50.782;6.818;2023-04-03T05:17:44;2.03;;;1.45;;
72891;SDS011;61032;50.782;6.818;2023-04-03T05:18:45;3.90;;;2.13;;
72891;SDS011;61032;50.782;6.818;2023-04-03T05:19:45;2.42;;;1.80;;
72891;SDS011;61032;50.782;6.818;2023-04-03T05:20:47;3.15;;;2.00;;
72891;SDS011;61032;50.782;6.818;2023-04-03T05:21:49;2.83;;;1.75;;
72891;SDS011;61032;50.782;6.818;2023-04-03T05:22:49;4.40;;;2.10;;
72891;SDS011;61032;50.782;6.818;2023-04-03T05:23:50;5.00;;;1.83;;
72891;SDS011;61032;50.782;6.818;2023-04-03T05:24:50;2.42;;;2.22;;
72891;SDS011;61032;50.782;6.818;2023-04-03T05:25:50;2.05;;;1.42;;
72891;SDS011;61032;50.782;6.818;2023-04-03T05:26:51;3.92;;;1.75;;
72891;SDS011;61032;50.782;6.818;2023-04-03T05:27:51;4.70;;;2.13;;
72891;SDS011;61032;50.782;6.818;2023-04-03T05:28:51;3.80;;;1.75;;
72891;SDS011;61032;50.782;6.818;2023-04-03T05:29:52;2.72;;;1.90;;
72891;SDS011;61032;50.782;6.818;2023-04-03T05:30:53;2.92;;;1.40;;
72891;SDS011;61032;50.782;6.818;2023-04-03T05:31:55;3.85;;;2.15;;
72891;SDS011;61032;50.782;6.818;2023-04-03T05:32:55;2.95;;;1.73;;
72891;SDS011;61032;50.782;6.818;2023-04-03T05:33:56;2.63;;;2.13;;
72891;SDS011;61032;50.782;6.818;2023-04-03T05:34:56;3.25;;;2.28;;
72891;SDS011;61032;50.782;6.818;2023-04-03T05:36:01;1.95;;;1.33;;
72891;SDS011;61032;50.782;6.818;2023-04-03T05:37:03;1.88;;;1.42;;
72891;SDS011;61032;50.782;6.818;2023-04-03T05:38:05;1.60;;;1.50;;
72891;SDS011;61032;50.782;6.818;2023-04-03T05:39:05;2.45;;;1.42;;
72891;SDS011;61032;50.782;6.818;2023-04-03T05:40:06;4.03;;;2.00;;
72891;SDS011;61032;50.782;6.818;2023-04-03T05:41:07;4.38;;;1.58;;
72891;SDS011;61032;50.782;6.818;2023-04-03T05:42:07;3.08;;;1.42;;
72891;SDS011;61032;50.782;6.818;2023-04-03T05:43:08;2.22;;;1.30;;
72891;SDS011;61032;50.782;6.818;2023-04-03T05:44:08;4.70;;;1.73;;
72891;SDS011;61032;50.782;6.818;2023-04-03T05:45:08;4.65;;;1.83;;
72891;SDS011;61032;50.782;6.818;2023-04-03T05:46:16;1.90;;;1.42;;
72891;SDS011;61032;50.782;6.818;2023-04-03T05:47:17;2.63;;;1.52;;
72891;SDS011;61032;50.782;6.818;2023-04-03T05:48:18;3.92;;;2.00;;
72891;SDS011;61032;50.782;6.818;2023-04-03T05:49:19;3.00;;;1.63;;
72891;SDS011;61032;50.782;6.818;2023-04-03T05:50:19;3.08;;;1.45;;
72891;SDS011;61032;50.782;6.818;2023-04-03T05:51:23;3.30;;;2.03;;
72891;SDS011;61032;50.782;6.818;2023-04-03T05:52:29;2.30;;;1.77;;
72891;SDS011;61032;50.782;6.818;2023-04-03T05:53:32;4.47;;;1.98;;
72891;SDS011;61032;50.782;6.818;2023-04-03T05:54:37;2.40;;;1.70;;
72891;SDS011;61032;50.782;6.818;2023-04-03T05:55:37;1.85;;;1.23;;
72891;SDS011;61032;50.782;6.818;2023-04-03T05:56:37;3.58;;;2.03;;
72891;SDS011;61032;50.782;6.818;2023-04-03T05:57:37;3.25;;;2.13;;
72891;SDS011;61032;50.782;6.818;2023-04-03T05:58:38;4.50;;;2.13;;
72891;SDS011;61032;50.782;6.818;2023-04-03T05:59:38;5.53;;;2.92;;
72891;SDS011;61032;50.782;6.818;2023-04-03T06:00:38;5.47;;;2.47;;
72891;SDS011;61032;50.782;6.818;2023-04-03T06:01:39;2.65;;;1.70;;
72891;SDS011;61032;50.782;6.818;2023-04-03T06:02:39;3.67;;;1.95;;
72891;SDS011;61032;50.782;6.818;2023-04-03T06:03:39;3.15;;;1.88;;
72891;SDS011;61032;50.782;6.818;2023-04-03T06:04:40;3.38;;;2.03;;
72891;SDS011;61032;50.782;6.818;2023-04-03T06:05:40;3.15;;;2.13;;
72891;SDS011;61032;50.782;6.818;2023-04-03T06:07:49;3.42;;;1.85;;
72891;SDS011;61032;50.782;6.818;2023-04-03T06:08:49;1.77;;;1.27;;
72891;SDS011;61032;50.782;6.818;2023-04-03T06:09:50;3.15;;;1.70;;
72891;SDS011;61032;50.782;6.818;2023-04-03T06:10:53;2.17;;;1.45;;
72891;SDS011;61032;50.782;6.818;2023-04-03T06:11:54;2.70;;;1.85;;
72891;SDS011;61032;50.782;6.818;2023-04-03T06:12:54;2.78;;;1.45;;
72891;SDS011;61032;50.782;6.818;2023-04-03T06:13:55;2.00;;;1.25;;
72891;SDS011;61032;50.782;6.818;2023-04-03T06:14:56;2.78;;;1.52;;
72891;SDS011;61032;50.782;6.818;2023-04-03T06:15:57;2.53;;;1.65;;
72891;SDS011;61032;50.782;6.818;2023-04-03T06:16:57;5.25;;;1.88;;
72891;SDS011;61032;50.782;6.818;2023-04-03T06:17:58;4.38;;;1.85;;